createdAt,value
2022-09-25T00:00:57.289Z,11.88
2022-09-25T00:02:59.027Z,11.92
2022-09-25T00:05:00.649Z,11.94
2022-09-25T00:07:02.602Z,11.97
2022-09-25T00:09:06.838Z,11.97
2022-09-25T00:11:16.744Z,12.01
2022-09-25T00:13:21.135Z,12.03
2022-09-25T00:15:23.164Z,11.99
2022-09-25T00:17:24.789Z,11.99
2022-09-25T00:19:45.544Z,11.97
2022-09-25T00:21:53.093Z,11.99
2022-09-25T00:23:54.934Z,11.90
2022-09-25T00:25:57.330Z,11.80
2022-09-25T00:27:59.237Z,11.77
2022-09-25T00:30:00.934Z,11.73
2022-09-25T00:32:03.625Z,11.66
2022-09-25T00:34:06.056Z,11.60
2022-09-25T00:36:10.098Z,11.42
2022-09-25T00:38:11.710Z,11.12
2022-09-25T00:40:14.730Z,10.94
2022-09-25T00:42:20.596Z,10.90
2022-09-25T00:44:41.115Z,10.86
2022-09-25T00:46:44.270Z,10.86
2022-09-25T00:48:52.120Z,11.00
2022-09-25T00:50:55.620Z,11.06
2022-09-25T00:53:07.469Z,11.13
2022-09-25T00:55:09.891Z,11.22
2022-09-25T00:57:14.860Z,11.26
2022-09-25T00:59:30.043Z,11.26
2022-09-25T01:01:31.751Z,11.26
2022-09-25T01:03:34.254Z,11.28
2022-09-25T01:05:38.920Z,11.27
2022-09-25T01:07:43.198Z,11.21
2022-09-25T01:09:45.939Z,11.16
2022-09-25T01:11:47.923Z,11.17
2022-09-25T01:13:49.526Z,11.22
2022-09-25T01:16:38.417Z,11.24
2022-09-25T01:18:52.181Z,11.25
2022-09-25T01:21:10.588Z,11.23
2022-09-25T01:23:37.095Z,11.23
2022-09-25T01:26:16.204Z,11.24
2022-09-25T01:28:29.707Z,11.27
2022-09-25T01:30:34.103Z,11.23
2022-09-25T01:32:58.925Z,11.20
2022-09-25T01:35:22.162Z,11.07
2022-09-25T01:37:32.859Z,10.95
2022-09-25T01:39:38.715Z,10.86
2022-09-25T01:42:08.662Z,10.85
2022-09-25T01:44:14.490Z,10.77
2022-09-25T01:46:19.555Z,10.79
2022-09-25T01:48:25.142Z,10.86
2022-09-25T01:50:47.017Z,10.96
2022-09-25T01:52:51.768Z,11.01
2022-09-25T01:54:56.212Z,11.04
2022-09-25T01:57:04.607Z,11.09
2022-09-25T01:59:24.513Z,11.07
2022-09-25T02:01:29.728Z,11.09
2022-09-25T02:03:37.372Z,11.08
2022-09-25T02:05:46.264Z,10.99
2022-09-25T02:07:58.717Z,10.93
2022-09-25T02:10:05.396Z,10.88
2022-09-25T02:12:14.707Z,10.85
2022-09-25T02:14:46.885Z,10.87
2022-09-25T02:16:52.867Z,10.89
2022-09-25T02:19:13.283Z,10.89
2022-09-25T02:21:21.167Z,10.91
2022-09-25T02:23:24.946Z,10.88
2022-09-25T02:25:38.677Z,10.87
2022-09-25T02:27:40.555Z,10.92
2022-09-25T02:29:44.887Z,10.96
2022-09-25T02:31:53.729Z,10.91
2022-09-25T02:33:56.148Z,10.85
2022-09-25T02:35:59.333Z,10.81
2022-09-25T02:38:01.101Z,10.78
2022-09-25T02:40:04.098Z,10.81
2022-09-25T02:42:23.629Z,10.85
2022-09-25T02:44:46.860Z,10.84
2022-09-25T02:47:27.322Z,10.85
2022-09-25T02:49:38.082Z,10.85
2022-09-25T02:51:43.653Z,10.81
2022-09-25T02:54:12.906Z,10.60
2022-09-25T02:56:29.133Z,10.04
2022-09-25T02:58:54.023Z,9.60
2022-09-25T03:00:56.701Z,9.38
2022-09-25T03:02:59.994Z,9.49
2022-09-25T03:05:02.902Z,9.72
2022-09-25T03:07:05.511Z,9.91
2022-09-25T03:09:09.028Z,10.11
2022-09-25T03:11:14.327Z,10.22
2022-09-25T03:13:22.249Z,10.30
2022-09-25T03:15:24.584Z,10.32
2022-09-25T03:17:26.225Z,10.39
2022-09-25T03:19:29.677Z,10.37
2022-09-25T03:21:32.067Z,10.34
2022-09-25T03:23:33.683Z,10.35
2022-09-25T03:25:35.254Z,10.35
2022-09-25T03:27:36.860Z,10.39
2022-09-25T03:29:38.641Z,10.42
2022-09-25T03:31:42.735Z,10.47
2022-09-25T03:33:45.031Z,10.44
2022-09-25T03:35:46.640Z,10.47
2022-09-25T03:37:48.231Z,10.48
2022-09-25T03:39:49.842Z,10.45
2022-09-25T03:41:51.520Z,10.50
2022-09-25T03:43:53.878Z,10.49
2022-09-25T03:45:55.581Z,10.50
2022-09-25T03:47:57.205Z,10.47
2022-09-25T03:49:58.755Z,10.43
2022-09-25T03:52:00.373Z,9.80
2022-09-25T03:54:03.185Z,9.55
2022-09-25T03:56:07.673Z,9.56
2022-09-25T03:58:09.461Z,9.69
2022-09-25T04:00:11.819Z,9.78
2022-09-25T04:02:13.571Z,9.89
2022-09-25T04:04:15.213Z,9.89
2022-09-25T04:06:20.080Z,9.93
2022-09-25T04:08:23.199Z,9.83
2022-09-25T04:10:24.754Z,9.80
2022-09-25T04:12:26.832Z,9.77
2022-09-25T04:14:28.401Z,9.76
2022-09-25T04:16:30.415Z,9.78
2022-09-25T04:18:32.938Z,9.89
2022-09-25T04:20:35.350Z,9.96
2022-09-25T04:22:36.956Z,10.03
2022-09-25T04:24:50.554Z,10.07
2022-09-25T04:26:53.742Z,10.12
2022-09-25T04:28:55.759Z,10.16
2022-09-25T04:30:57.387Z,10.20
2022-09-25T04:33:17.993Z,10.26
2022-09-25T04:35:19.553Z,10.27
2022-09-25T04:37:26.343Z,10.32
2022-09-25T04:39:28.190Z,10.35
2022-09-25T04:41:29.775Z,10.32
2022-09-25T04:43:32.703Z,10.34
2022-09-25T04:45:36.875Z,10.34
2022-09-25T04:47:38.434Z,10.35
2022-09-25T04:49:40.229Z,10.39
2022-09-25T04:51:41.792Z,10.44
2022-09-25T04:53:43.401Z,10.41
2022-09-25T04:55:46.339Z,10.42
2022-09-25T04:57:59.771Z,10.46
2022-09-25T05:00:02.003Z,10.52
2022-09-25T05:02:03.837Z,10.58
2022-09-25T05:04:08.698Z,10.61
2022-09-25T05:06:10.666Z,10.64
2022-09-25T05:08:13.930Z,10.73
2022-09-25T05:10:15.601Z,10.78
2022-09-25T05:12:17.167Z,10.81
2022-09-25T05:14:19.037Z,10.87
2022-09-25T05:16:20.786Z,10.93
2022-09-25T05:18:24.217Z,10.99
2022-09-25T05:20:25.928Z,11.07
2022-09-25T05:22:27.752Z,11.17
2022-09-25T05:24:30.217Z,11.30
2022-09-25T05:26:34.455Z,11.41
2022-09-25T05:28:36.066Z,11.44
2022-09-25T05:30:38.956Z,11.55
2022-09-25T05:32:40.609Z,11.69
2022-09-25T05:34:42.244Z,11.67
2022-09-25T05:36:43.866Z,11.61
2022-09-25T05:38:45.468Z,11.57
2022-09-25T05:40:47.304Z,11.40
2022-09-25T05:42:49.249Z,11.09
2022-09-25T05:44:50.934Z,10.89
2022-09-25T05:46:52.580Z,10.77
2022-09-25T05:48:54.947Z,10.82
2022-09-25T05:50:57.443Z,10.66
2022-09-25T05:53:00.696Z,10.41
2022-09-25T05:55:03.628Z,10.61
2022-09-25T05:57:05.227Z,10.73
2022-09-25T05:59:07.031Z,10.90
2022-09-25T06:01:08.789Z,10.82
2022-09-25T06:03:11.147Z,10.82
2022-09-25T06:05:12.843Z,11.03
2022-09-25T06:07:14.537Z,11.23
2022-09-25T06:09:16.213Z,11.55
2022-09-25T06:11:17.777Z,11.76
2022-09-25T06:13:19.644Z,11.94
2022-09-25T06:15:22.907Z,12.18
2022-09-25T06:17:24.488Z,12.36
2022-09-25T06:19:26.915Z,12.46
2022-09-25T06:21:28.519Z,12.64
2022-09-25T06:23:30.639Z,12.80
2022-09-25T06:25:36.618Z,12.98
2022-09-25T06:27:38.291Z,13.12
2022-09-25T06:29:39.855Z,12.76
2022-09-25T06:31:41.521Z,12.80
2022-09-25T06:33:43.934Z,12.85
2022-09-25T06:35:47.699Z,12.76
2022-09-25T06:37:49.178Z,12.84
2022-09-25T06:39:50.738Z,13.02
2022-09-25T06:41:54.049Z,13.25
2022-09-25T06:43:55.722Z,13.20
2022-09-25T06:46:02.236Z,13.34
2022-09-25T06:48:13.223Z,13.55
2022-09-25T06:50:15.145Z,13.68
2022-09-25T06:52:17.016Z,13.73
2022-09-25T06:54:18.804Z,13.88
2022-09-25T06:56:22.116Z,13.69
2022-09-25T06:58:25.383Z,13.74
2022-09-25T07:00:27.661Z,13.87
2022-09-25T07:02:47.964Z,13.61
2022-09-25T07:04:51.577Z,13.63
2022-09-25T07:06:56.829Z,13.58
2022-09-25T07:08:58.538Z,13.48
2022-09-25T07:11:00.705Z,13.16
2022-09-25T07:13:02.311Z,12.89
2022-09-25T07:15:04.582Z,12.96
2022-09-25T07:17:06.138Z,13.21
2022-09-25T07:19:27.949Z,13.20
2022-09-25T07:21:32.602Z,13.28
2022-09-25T07:23:34.698Z,13.64
2022-09-25T07:25:36.288Z,14.05
2022-09-25T07:27:37.886Z,14.36
2022-09-25T07:29:39.446Z,14.54
2022-09-25T07:31:43.033Z,14.60
2022-09-25T07:33:45.317Z,14.58
2022-09-25T07:35:46.956Z,14.53
2022-09-25T07:37:48.583Z,14.40
2022-09-25T07:39:50.372Z,14.56
2022-09-25T07:41:54.587Z,14.73
2022-09-25T07:46:19.520Z,14.79
2022-09-25T07:48:21.647Z,14.91
2022-09-25T07:50:23.304Z,14.85
2022-09-25T07:52:25.307Z,14.83
2022-09-25T07:54:26.939Z,14.50
2022-09-25T07:56:28.518Z,14.16
2022-09-25T07:58:30.612Z,14.45
2022-09-25T08:00:33.117Z,14.74
2022-09-25T08:02:35.340Z,14.99
2022-09-25T08:04:36.981Z,15.10
2022-09-25T08:06:38.712Z,15.17
2022-09-25T08:08:41.560Z,15.11
2022-09-25T08:10:43.340Z,15.34
2022-09-25T08:12:45.086Z,15.58
2022-09-25T08:14:46.746Z,15.84
2022-09-25T08:16:49.430Z,16.08
2022-09-25T08:18:51.117Z,16.34
2022-09-25T08:20:52.715Z,16.61
2022-09-25T08:22:55.372Z,16.81
2022-09-25T08:24:56.979Z,16.93
2022-09-25T08:26:58.671Z,17.07
2022-09-25T08:29:00.418Z,17.18
2022-09-25T08:31:04.174Z,16.74
2022-09-25T08:33:14.612Z,16.32
2022-09-25T08:35:17.198Z,16.13
2022-09-25T08:37:19.620Z,16.02
2022-09-25T08:39:21.200Z,16.29
2022-09-25T08:41:29.679Z,16.59
2022-09-25T08:43:32.523Z,16.72
2022-09-25T08:45:55.412Z,17.00
2022-09-25T08:48:17.094Z,17.26
2022-09-25T08:50:25.603Z,17.35
2022-09-25T08:52:27.254Z,17.54
2022-09-25T08:54:31.365Z,17.70
2022-09-25T08:56:35.148Z,17.92
2022-09-25T08:58:43.214Z,17.34
2022-09-25T09:00:45.737Z,17.26
2022-09-25T09:02:54.870Z,17.30
2022-09-25T09:05:01.286Z,17.64
2022-09-25T09:07:26.244Z,17.96
2022-09-25T09:09:33.267Z,18.25
2022-09-25T09:11:52.790Z,18.35
2022-09-25T09:14:04.353Z,18.25
2022-09-25T09:16:09.626Z,18.08
2022-09-25T09:18:24.027Z,18.09
2022-09-25T09:20:38.039Z,18.24
2022-09-25T09:22:40.534Z,18.41
2022-09-25T09:24:52.437Z,18.63
2022-09-25T09:27:24.966Z,18.88
2022-09-25T09:29:29.628Z,18.96
2022-09-25T09:31:50.153Z,18.80
2022-09-25T09:34:01.731Z,18.77
2022-09-25T09:36:34.579Z,18.47
2022-09-25T09:38:57.224Z,18.22
2022-09-25T09:41:24.860Z,18.02
2022-09-25T09:43:57.214Z,17.87
2022-09-25T09:46:08.717Z,17.94
2022-09-25T09:48:13.147Z,18.26
2022-09-25T09:50:33.573Z,18.39
2022-09-25T09:52:40.778Z,18.26
2022-09-25T09:54:53.393Z,18.13
2022-09-25T09:56:56.858Z,18.30
2022-09-25T09:59:13.208Z,18.48
2022-09-25T10:01:39.729Z,18.73
2022-09-25T10:03:39.098Z,19.09
2022-09-25T10:05:47.732Z,19.45
2022-09-25T10:07:51.126Z,19.65
2022-09-25T10:09:54.732Z,19.69
2022-09-25T10:12:01.061Z,19.77
2022-09-25T10:14:04.709Z,19.32
2022-09-25T10:16:08.549Z,19.32
2022-09-25T10:18:11.104Z,19.30
2022-09-25T10:20:20.405Z,19.38
2022-09-25T10:22:26.502Z,19.53
2022-09-25T10:24:51.922Z,19.71
2022-09-25T10:26:53.788Z,19.62
2022-09-25T10:29:00.609Z,19.36
2022-09-25T10:31:03.635Z,19.41
2022-09-25T10:33:14.472Z,19.75
2022-09-25T10:35:19.542Z,19.99
2022-09-25T10:37:22.212Z,20.18
2022-09-25T10:39:46.933Z,20.40
2022-09-25T10:41:49.135Z,20.62
2022-09-25T10:43:54.965Z,20.77
2022-09-25T10:46:08.662Z,20.98
2022-09-25T10:48:50.660Z,21.13
2022-09-25T10:51:07.540Z,21.27
2022-09-25T10:53:28.414Z,21.36
2022-09-25T10:55:35.307Z,21.44
2022-09-25T10:57:38.642Z,21.52
2022-09-25T10:59:40.545Z,21.48
2022-09-25T11:01:43.196Z,21.20
2022-09-25T11:03:55.275Z,20.98
2022-09-25T11:06:05.740Z,20.55
2022-09-25T11:08:07.912Z,20.58
2022-09-25T11:10:19.787Z,20.61
2022-09-25T11:12:26.678Z,20.80
2022-09-25T11:14:33.317Z,20.84
2022-09-25T11:16:48.082Z,21.00
2022-09-25T11:18:51.926Z,21.15
2022-09-25T11:21:04.315Z,20.93
2022-09-25T11:23:16.064Z,21.05
2022-09-25T11:25:23.373Z,21.15
2022-09-25T11:27:33.081Z,21.28
2022-09-25T11:29:44.325Z,21.39
2022-09-25T11:31:58.889Z,21.52
2022-09-25T11:34:19.300Z,21.68
2022-09-25T11:36:27.770Z,21.77
2022-09-25T11:38:52.927Z,21.87
2022-09-25T11:41:16.089Z,21.94
2022-09-25T11:43:47.016Z,21.62
2022-09-25T11:45:53.605Z,21.22
2022-09-25T11:48:00.123Z,21.37
2022-09-25T11:50:02.192Z,21.61
2022-09-25T11:52:04.177Z,21.82
2022-09-25T11:54:34.851Z,21.90
2022-09-25T11:56:50.195Z,22.02
2022-09-25T11:59:11.068Z,22.16
2022-09-25T12:01:24.959Z,22.24
2022-09-25T12:03:35.332Z,22.31
2022-09-25T12:05:42.865Z,22.42
2022-09-25T12:07:56.839Z,22.28
2022-09-25T12:10:16.289Z,22.25
2022-09-25T12:12:41.667Z,22.07
2022-09-25T12:15:01.600Z,22.04
2022-09-25T12:17:32.617Z,22.00
2022-09-25T12:19:53.022Z,22.01
2022-09-25T12:22:01.541Z,22.02
2022-09-25T12:24:28.114Z,22.09
2022-09-25T12:26:48.372Z,22.13
2022-09-25T12:29:20.980Z,22.10
2022-09-25T12:31:34.466Z,22.25
2022-09-25T12:33:52.559Z,22.37
2022-09-25T12:36:00.020Z,22.44
2022-09-25T12:38:19.258Z,22.47
2022-09-25T12:40:29.547Z,22.43
2022-09-25T12:42:46.511Z,22.49
2022-09-25T12:45:26.340Z,22.61
2022-09-25T12:47:46.645Z,22.61
2022-09-25T12:50:14.211Z,22.49
2022-09-25T12:52:17.583Z,22.56
2022-09-25T12:54:35.831Z,22.69
2022-09-25T12:56:57.417Z,22.68
2022-09-25T12:59:09.824Z,22.67
2022-09-25T13:01:21.939Z,22.72
2022-09-25T13:03:26.773Z,22.76
2022-09-25T13:05:44.507Z,22.81
2022-09-25T13:07:53.151Z,22.87
2022-09-25T13:09:54.862Z,22.79
2022-09-25T13:12:03.166Z,22.61
2022-09-25T13:14:06.091Z,22.73
2022-09-25T13:16:07.735Z,22.68
2022-09-25T13:18:16.483Z,22.68
2022-09-25T13:20:27.523Z,22.78
2022-09-25T13:22:32.275Z,22.88
2022-09-25T13:24:53.014Z,22.92
2022-09-25T13:26:55.896Z,22.96
2022-09-25T13:29:28.064Z,23.02
2022-09-25T13:31:32.290Z,22.90
2022-09-25T13:33:47.942Z,22.85
2022-09-25T13:35:49.545Z,22.84
2022-09-25T13:37:54.334Z,22.84
2022-09-25T13:40:14.950Z,22.88
2022-09-25T13:42:29.834Z,22.90
2022-09-25T13:44:43.650Z,22.82
2022-09-25T13:46:45.209Z,22.70
2022-09-25T13:48:47.802Z,22.77
2022-09-25T13:50:51.601Z,22.81
2022-09-25T13:53:20.814Z,22.88
2022-09-25T13:55:24.049Z,22.92
2022-09-25T13:57:59.920Z,22.97
2022-09-25T14:00:06.244Z,23.07
2022-09-25T14:02:34.967Z,23.01
2022-09-25T14:04:37.776Z,22.97
2022-09-25T14:06:41.636Z,22.86
2022-09-25T14:08:44.083Z,22.83
2022-09-25T14:10:51.804Z,22.85
2022-09-25T14:12:54.177Z,22.86
2022-09-25T14:15:07.427Z,22.81
2022-09-25T14:17:15.992Z,22.80
2022-09-25T14:19:27.724Z,22.81
2022-09-25T14:21:29.876Z,22.83
2022-09-25T14:23:33.421Z,22.87
2022-09-25T14:25:40.596Z,23.02
2022-09-25T14:27:42.170Z,23.12
2022-09-25T14:29:43.736Z,23.17
2022-09-25T14:32:25.858Z,23.21
2022-09-25T14:35:01.684Z,23.26
2022-09-25T14:37:14.279Z,23.34
2022-09-25T14:39:37.422Z,23.46
2022-09-25T14:42:19.661Z,23.46
2022-09-25T14:44:45.734Z,23.50
2022-09-25T14:46:50.871Z,23.48
2022-09-25T14:49:28.748Z,23.45
2022-09-25T14:51:41.829Z,23.38
2022-09-25T14:53:46.694Z,23.28
2022-09-25T14:55:51.166Z,23.17
2022-09-25T14:57:52.967Z,23.02
2022-09-25T14:59:57.940Z,22.90
2022-09-25T15:02:02.417Z,22.78
2022-09-25T15:04:06.307Z,22.72
2022-09-25T15:06:11.472Z,22.71
2022-09-25T15:08:36.170Z,22.69
2022-09-25T15:10:39.029Z,22.60
2022-09-25T15:12:45.777Z,22.54
2022-09-25T15:15:03.184Z,22.45
2022-09-25T15:17:22.221Z,22.41
2022-09-25T15:19:31.249Z,22.32
2022-09-25T15:21:34.502Z,22.25
2022-09-25T15:23:38.633Z,22.35
2022-09-25T15:25:43.580Z,22.42
2022-09-25T15:27:45.448Z,22.38
2022-09-25T15:29:47.836Z,22.28
2022-09-25T15:31:51.335Z,22.23
2022-09-25T15:34:12.811Z,22.17
2022-09-25T15:36:23.778Z,22.11
2022-09-25T15:38:44.547Z,22.03
2022-09-25T15:40:55.513Z,22.00
2022-09-25T15:42:57.625Z,22.04
2022-09-25T15:45:03.653Z,22.13
2022-09-25T15:47:05.682Z,22.12
2022-09-25T15:49:07.910Z,22.04
2022-09-25T15:51:19.535Z,22.00
2022-09-25T15:53:28.256Z,22.09
2022-09-25T15:55:31.333Z,22.02
2022-09-25T15:57:33.360Z,21.90
2022-09-25T15:59:59.561Z,21.72
2022-09-25T16:02:34.340Z,21.53
2022-09-25T16:04:49.377Z,21.34
2022-09-25T16:06:51.237Z,21.22
2022-09-25T16:09:08.846Z,21.04
2022-09-25T16:11:10.406Z,20.97
2022-09-25T16:13:23.242Z,20.90
2022-09-25T16:15:27.772Z,20.85
2022-09-25T16:17:35.621Z,20.78
2022-09-25T16:19:37.301Z,20.72
2022-09-25T16:21:40.230Z,20.62
2022-09-25T16:23:43.134Z,20.58
2022-09-25T16:25:45.117Z,20.53
2022-09-25T16:27:47.087Z,20.46
2022-09-25T16:29:48.771Z,20.39
2022-09-25T16:31:54.318Z,20.31
2022-09-25T16:33:57.484Z,20.27
2022-09-25T16:36:17.038Z,20.23
2022-09-25T16:38:38.245Z,20.16
2022-09-25T16:40:40.200Z,20.12
2022-09-25T16:42:42.387Z,19.99
2022-09-25T16:44:47.193Z,19.95
2022-09-25T16:47:18.926Z,19.87
2022-09-25T16:49:20.475Z,19.82
2022-09-25T16:51:23.234Z,19.78
2022-09-25T16:53:26.910Z,19.71
2022-09-25T16:55:33.315Z,19.63
2022-09-25T16:57:35.434Z,19.58
2022-09-25T16:59:37.034Z,19.55
2022-09-25T17:01:39.709Z,19.51
2022-09-25T17:03:50.912Z,19.45
2022-09-25T17:05:54.571Z,19.37
2022-09-25T17:08:14.924Z,19.37
2022-09-25T17:10:19.462Z,19.33
2022-09-25T17:12:24.593Z,19.32
2022-09-25T17:14:27.668Z,19.21
2022-09-25T17:16:31.094Z,19.23
2022-09-25T17:18:32.847Z,19.21
2022-09-25T17:20:35.603Z,19.22
2022-09-25T17:22:37.293Z,19.18
2022-09-25T17:24:38.978Z,19.20
2022-09-25T17:26:40.779Z,19.19
2022-09-25T17:28:42.706Z,19.16
2022-09-25T17:30:45.311Z,19.15
2022-09-25T17:32:46.988Z,19.14
2022-09-25T17:34:48.817Z,19.14
2022-09-25T17:36:51.110Z,19.17
2022-09-25T17:38:53.212Z,19.17
2022-09-25T17:41:00.493Z,19.17
2022-09-25T17:43:04.843Z,19.14
2022-09-25T17:45:37.144Z,19.18
2022-09-25T17:47:38.834Z,19.13
2022-09-25T17:49:41.411Z,19.10
2022-09-25T17:51:43.320Z,19.07
2022-09-25T17:53:45.867Z,19.05
2022-09-25T17:55:53.186Z,19.08
2022-09-25T17:57:55.528Z,19.09
2022-09-25T17:59:57.306Z,19.10
2022-09-25T18:01:59.768Z,19.09
2022-09-25T18:04:03.186Z,19.06
2022-09-25T18:06:05.443Z,19.07
2022-09-25T18:08:07.282Z,19.08
2022-09-25T18:10:09.590Z,19.07
2022-09-25T18:12:11.269Z,19.05
2022-09-25T18:14:14.485Z,19.05
2022-09-25T18:16:19.769Z,19.03
2022-09-25T18:18:21.755Z,19.01
2022-09-25T18:20:42.676Z,19.01
2022-09-25T18:22:44.618Z,19.00
2022-09-25T18:24:56.948Z,18.96
2022-09-25T18:26:59.413Z,18.94
2022-09-25T18:29:00.987Z,18.91
2022-09-25T18:31:02.624Z,18.89
2022-09-25T18:33:04.545Z,18.87
2022-09-25T18:35:07.450Z,18.82
2022-09-25T18:37:09.542Z,18.71
2022-09-25T18:39:13.850Z,18.55
2022-09-25T18:41:19.222Z,18.36
2022-09-25T18:43:21.145Z,18.33
2022-09-25T18:45:22.880Z,18.34
2022-09-25T18:47:24.901Z,18.30
2022-09-25T18:49:26.518Z,18.31
2022-09-25T18:51:28.178Z,18.32
2022-09-25T18:53:29.876Z,18.27
2022-09-25T18:55:31.510Z,18.21
2022-09-25T18:57:37.356Z,18.20
2022-09-25T18:59:42.018Z,18.20
2022-09-25T19:01:44.061Z,18.18
2022-09-25T19:03:51.869Z,18.15
2022-09-25T19:06:01.473Z,18.11
2022-09-25T19:08:04.924Z,18.08
2022-09-25T19:10:09.560Z,17.94
2022-09-25T19:12:17.124Z,17.86
2022-09-25T19:14:19.948Z,17.79
2022-09-25T19:16:22.004Z,17.80
2022-09-25T19:18:23.859Z,17.80
2022-09-25T19:20:25.576Z,17.69
2022-09-25T19:22:27.245Z,17.61
2022-09-25T19:24:30.758Z,17.55
2022-09-25T19:26:32.323Z,17.54
2022-09-25T19:28:34.981Z,17.51
2022-09-25T19:30:36.730Z,17.51
2022-09-25T19:32:38.300Z,17.49
2022-09-25T19:34:40.364Z,17.48
2022-09-25T19:36:42.011Z,17.46
2022-09-25T19:38:43.703Z,17.43
2022-09-25T19:40:45.409Z,17.43
2022-09-25T19:42:47.748Z,17.36
2022-09-25T19:44:49.493Z,17.34
2022-09-25T19:46:51.527Z,17.24
2022-09-25T19:48:53.155Z,17.05
2022-09-25T19:50:54.903Z,16.97
2022-09-25T19:52:56.484Z,16.99
2022-09-25T19:54:58.053Z,17.00
2022-09-25T19:57:00.326Z,17.01
2022-09-25T19:59:05.708Z,17.01
2022-09-25T20:01:10.321Z,16.97
2022-09-25T20:03:12.071Z,16.92
2022-09-25T20:05:13.809Z,16.93
2022-09-25T20:07:16.411Z,16.91
2022-09-25T20:09:18.272Z,16.83
2022-09-25T20:11:22.163Z,16.77
2022-09-25T20:13:24.233Z,16.77
2022-09-25T20:15:26.333Z,16.78
2022-09-25T20:17:28.008Z,16.78
2022-09-25T20:19:29.636Z,16.77
2022-09-25T20:21:33.552Z,16.74
2022-09-25T20:23:35.906Z,16.73
2022-09-25T20:25:37.643Z,16.73
2022-09-25T20:27:39.292Z,16.75
2022-09-25T20:29:40.887Z,16.74
2022-09-25T20:31:44.276Z,16.72
2022-09-25T20:33:45.845Z,16.67
2022-09-25T20:35:47.378Z,16.52
2022-09-25T20:37:48.993Z,16.51
2022-09-25T20:39:50.711Z,16.52
2022-09-25T20:41:52.352Z,16.49
2022-09-25T20:43:56.022Z,16.42
2022-09-25T20:45:59.349Z,16.40
2022-09-25T20:48:01.561Z,16.36
2022-09-25T20:50:05.197Z,16.32
2022-09-25T20:52:06.765Z,16.30
2022-09-25T20:54:10.055Z,16.34
2022-09-25T20:56:13.969Z,16.36
2022-09-25T20:58:15.556Z,16.39
2022-09-25T21:00:19.387Z,16.42
2022-09-25T21:02:21.325Z,16.42
2022-09-25T21:04:23.102Z,16.31
2022-09-25T21:06:27.298Z,16.12
2022-09-25T21:08:29.974Z,15.79
2022-09-25T21:10:36.186Z,15.77
2022-09-25T21:12:37.775Z,15.85
2022-09-25T21:14:39.477Z,15.88
2022-09-25T21:16:41.156Z,15.57
2022-09-25T21:18:43.235Z,15.52
2022-09-25T21:20:45.121Z,15.53
2022-09-25T21:22:47.647Z,15.60
2022-09-25T21:24:50.122Z,15.55
2022-09-25T21:26:51.837Z,15.63
2022-09-25T21:28:55.121Z,15.69
2022-09-25T21:31:01.895Z,15.73
2022-09-25T21:33:03.644Z,15.79
2022-09-25T21:35:05.547Z,15.82
2022-09-25T21:37:07.125Z,15.86
2022-09-25T21:39:09.066Z,15.86
2022-09-25T21:41:13.213Z,15.84
2022-09-25T21:43:15.212Z,15.86
2022-09-25T21:45:16.867Z,15.86
2022-09-25T21:47:19.155Z,15.84
2022-09-25T21:49:21.764Z,15.84
2022-09-25T21:51:26.445Z,15.77
2022-09-25T21:53:28.601Z,15.74
2022-09-25T21:55:30.271Z,15.71
2022-09-25T21:57:31.962Z,15.59
2022-09-25T21:59:33.607Z,15.17
2022-09-25T22:01:36.684Z,15.15
2022-09-25T22:03:40.372Z,15.07
2022-09-25T22:05:42.443Z,15.00
2022-09-25T22:07:44.202Z,15.06
2022-09-25T22:09:45.923Z,15.09
2022-09-25T22:11:48.408Z,15.15
2022-09-25T22:13:51.354Z,15.11
2022-09-25T22:16:01.055Z,15.11
2022-09-25T22:18:02.622Z,15.14
2022-09-25T22:20:05.658Z,15.10
2022-09-25T22:22:07.489Z,15.01
2022-09-25T22:24:09.953Z,14.98
2022-09-25T22:26:13.330Z,15.00
2022-09-25T22:28:14.960Z,14.95
2022-09-25T22:30:16.630Z,14.86
2022-09-25T22:32:18.275Z,14.85
2022-09-25T22:34:23.297Z,14.88
2022-09-25T22:36:26.088Z,14.92
2022-09-25T22:38:28.971Z,14.97
2022-09-25T22:40:30.757Z,15.02
2022-09-25T22:42:32.652Z,15.05
2022-09-25T22:44:34.228Z,15.10
2022-09-25T22:46:36.116Z,15.11
2022-09-25T22:48:38.771Z,15.10
2022-09-25T22:50:40.382Z,15.14
2022-09-25T22:52:42.056Z,15.14
2022-09-25T22:54:43.866Z,15.10
2022-09-25T22:56:45.467Z,15.08
2022-09-25T22:58:52.298Z,15.09
2022-09-25T23:00:54.007Z,15.15
2022-09-25T23:02:55.741Z,15.17
2022-09-25T23:04:58.882Z,15.20
2022-09-25T23:07:03.232Z,15.19
2022-09-25T23:09:07.515Z,15.17
2022-09-25T23:11:09.322Z,15.18
2022-09-25T23:13:12.220Z,15.06
2022-09-25T23:15:13.849Z,14.91
2022-09-25T23:17:15.458Z,14.79
2022-09-25T23:19:17.390Z,14.76
2022-09-25T23:21:19.221Z,14.79
2022-09-25T23:23:21.810Z,14.85
2022-09-25T23:25:23.657Z,14.91
2022-09-25T23:27:25.231Z,14.95
2022-09-25T23:29:27.054Z,14.91
2022-09-25T23:31:30.422Z,14.80
2022-09-25T23:33:33.540Z,14.59
2022-09-25T23:35:35.558Z,14.13
2022-09-25T23:37:37.233Z,14.16
2022-09-25T23:39:39.077Z,14.23
2022-09-25T23:41:40.796Z,14.33
2022-09-25T23:43:42.913Z,14.36
2022-09-25T23:45:44.529Z,14.16
2022-09-25T23:47:46.535Z,14.11
2022-09-25T23:49:48.097Z,14.19
2022-09-25T23:51:50.028Z,14.26
2022-09-25T23:53:52.004Z,14.36
2022-09-25T23:55:53.739Z,14.42
2022-09-25T23:57:55.731Z,14.30
2022-09-25T23:59:57.813Z,13.85
